Terminal Aerodrome Forecast
Issued by NWS Binghamton, NY

Home | Current Version | Previous Version | Text Only | Print | Product List | Glossary On
Versions: 1 2 3 4 5 6 7 8 9 10 11 12 13 14 15 16 17 18 19 20 21 22 23
000
FTUS41 KBGM 252300
TAFAVP
TAF
KAVP 252340Z 2600/2624 28012KT P6SM BKN040
     FM260300 27005KT P6SM FEW030
      TEMPO 2608/2612 OVC030
     FM261200 25007KT P6SM SCT030 SCT200=

USA.gov is the U.S. government's official web portal to all federal, state and local government web resources and services.